Time;durP1;ratioP1;P1;durP2;ratioP2;P2;SDS_P1;SDS_P2;PMS_P1;PMS_P2;Temp;Humidity;BMP_temperature;BMP_pressure;BME280_temperature;BME280_humidity;BME280_pressure;Samples;Min_cycle;Max_cycle;Signal;HPM_P1;HPM_P2
2023/11/03 00:02:23;;;;;;;;;;;;;;;10.49;100.00;97828.91;5008683;28;20028;-73
2023/11/03 00:04:52;;;;;;;;;;;;;;;10.49;100.00;97829.75;5030467;28;20380;-74
2023/11/03 00:07:19;;;;;;;;;;;;;;;10.50;100.00;97827.94;5027836;28;20015;-71
2023/11/03 00:09:46;;;;;;;;;;;;;;;10.49;100.00;97806.09;5032146;28;20343;-73
2023/11/03 00:12:13;;;;;;;;;;;;;;;10.50;100.00;97812.16;5025940;28;20481;-72
2023/11/03 00:14:43;;;;;;;;;;;;;;;10.48;100.00;97800.97;5028585;28;20555;-66
2023/11/03 00:17:13;;;;;;;;;;;;;;;10.44;100.00;97805.72;5024542;28;19964;-71
2023/11/03 00:19:41;;;;;;;;;;;;;;;10.41;100.00;97803.41;5028782;28;20719;-71
2023/11/03 00:22:08;;;;;;;;;;;;;;;10.37;100.00;97802.91;5026600;28;19925;-68
2023/11/03 00:24:35;;;;;;;;;;;;;;;10.36;100.00;97803.88;5024548;28;20066;-68
2023/11/03 00:27:02;;;;;;;;;;;;;;;10.35;100.00;97804.84;5027672;28;19925;-73
2023/11/03 00:29:29;;;;;;;;;;;;;;;10.33;100.00;97808.63;5011082;28;19933;-73
2023/11/03 00:31:56;;;;;;;;;;;;;;;10.31;100.00;97806.19;5027334;28;19972;-68
2023/11/03 00:34:23;;;;;;;;;;;;;;;10.30;100.00;97828.16;5023574;28;19980;-73
2023/11/03 00:36:50;;;;;;;;;;;;;;;10.24;100.00;97846.34;5029033;28;19925;-68
2023/11/03 00:39:18;;;;;;;;;;;;;;;10.22;100.00;97858.81;5023577;28;19956;-72
2023/11/03 00:41:47;;;;;;;;;;;;;;;10.22;100.00;97879.84;5029405;28;20008;-72
2023/11/03 00:44:15;;;;;;;;;;;;;;;10.23;100.00;97879.72;5023753;28;20094;-76
2023/11/03 00:46:42;;;;;;;;;;;;;;;10.22;100.00;97879.84;5020991;28;20089;-77
2023/11/03 00:49:10;;;;;;;;;;;;;;;10.22;100.00;97866.69;5006122;28;19933;-73
2023/11/03 00:51:37;;;;;;;;;;;;;;;10.14;100.00;97873.56;5013998;28;19925;-69
2023/11/03 00:54:04;;;;;;;;;;;;;;;10.13;100.00;97871.94;5029017;28;20006;-69
2023/11/03 00:56:39;;;;;;;;;;;;;;;10.13;100.00;97866.69;5026602;28;19982;-66
2023/11/03 00:59:07;;;;;;;;;;;;;;;10.14;100.00;97854.34;5019742;28;19936;-68
2023/11/03 01:01:35;;;;;;;;;;;;;;;10.09;100.00;97815.41;5023959;28;19929;-73
2023/11/03 01:04:02;;;;;;;;;;;;;;;10.07;100.00;97795.50;5023388;28;19991;-77
2023/11/03 01:06:29;;;;;;;;;;;;;;;10.07;100.00;97809.44;5022892;28;20036;-66
2023/11/03 01:08:57;;;;;;;;;;;;;;;10.09;100.00;97809.31;5021976;28;20091;-66
2023/11/03 01:11:26;;;;;;;;;;;;;;;10.06;100.00;97823.56;5017894;28;19925;-72
2023/11/03 01:13:53;;;;;;;;;;;;;;;10.05;100.00;97853.47;5021235;28;20003;-73
2023/11/03 01:16:25;;;;;;;;;;;;;;;10.07;100.00;97869.91;5003595;28;19961;-72
2023/11/03 01:18:53;;;;;;;;;;;;;;;10.06;100.00;97870.91;5014639;28;20028;-74
2023/11/03 01:21:22;;;;;;;;;;;;;;;10.02;100.00;97855.59;5022446;28;19965;-77
2023/11/03 01:23:49;;;;;;;;;;;;;;;9.99;100.00;97858.50;5028177;28;19956;-75
2023/11/03 01:26:16;;;;;;;;;;;;;;;9.99;100.00;97856.72;5027985;28;20446;-75
2023/11/03 01:28:43;;;;;;;;;;;;;;;9.99;100.00;97859.34;5022398;28;20343;-74
2023/11/03 01:31:11;;;;;;;;;;;;;;;10.02;100.00;97851.16;5021932;28;20384;-74
2023/11/03 01:33:41;;;;;;;;;;;;;;;10.05;100.00;97852.66;5021487;28;20391;-75
2023/11/03 01:36:09;;;;;;;;;;;;;;;10.02;100.00;97851.16;5021173;28;19965;-74
2023/11/03 01:38:36;;;;;;;;;;;;;;;10.02;100.00;97840.63;5019109;28;19971;-74
2023/11/03 01:41:04;;;;;;;;;;;;;;;10.00;100.00;97842.59;5022065;28;19968;-76
2023/11/03 01:43:31;;;;;;;;;;;;;;;9.94;100.00;97824.81;5020714;28;19925;-73
2023/11/03 01:45:59;;;;;;;;;;;;;;;9.97;100.00;97837.66;5042928;28;19964;-76
2023/11/03 01:48:29;;;;;;;;;;;;;;;9.98;100.00;97827.97;5011087;28;20055;-74
2023/11/03 01:50:58;;;;;;;;;;;;;;;9.96;100.00;97817.63;5030049;28;20600;-72
2023/11/03 01:53:26;;;;;;;;;;;;;;;9.95;100.00;97818.59;5018104;28;20008;-72
2023/11/03 01:55:53;;;;;;;;;;;;;;;9.96;100.00;97820.25;5023054;28;19929;-73
2023/11/03 01:58:20;;;;;;;;;;;;;;;9.94;100.00;97821.38;5019005;28;20372;-73
2023/11/03 02:00:47;;;;;;;;;;;;;;;9.90;100.00;97820.84;5038888;28;19975;-66
2023/11/03 02:03:14;;;;;;;;;;;;;;;9.90;100.00;97803.28;5025769;28;20351;-73
2023/11/03 02:05:43;;;;;;;;;;;;;;;9.87;100.00;97784.38;5025484;28;19925;-72
2023/11/03 02:08:10;;;;;;;;;;;;;;;9.89;100.00;97790.28;5016231;28;19925;-72
2023/11/03 02:10:42;;;;;;;;;;;;;;;9.86;100.00;97799.34;5015727;28;19925;-72
2023/11/03 02:13:10;;;;;;;;;;;;;;;9.86;100.00;97790.59;5018682;28;19932;-73
2023/11/03 02:15:41;;;;;;;;;;;;;;;9.86;100.00;97786.19;5027413;28;20525;-74
2023/11/03 02:18:10;;;;;;;;;;;;;;;9.86;100.00;97790.59;5023514;28;19929;-72
2023/11/03 02:20:37;;;;;;;;;;;;;;;9.87;100.00;97798.34;5025309;28;19937;-72
2023/11/03 02:23:05;;;;;;;;;;;;;;;9.85;100.00;97788.97;5020094;28;20341;-74
2023/11/03 02:25:32;;;;;;;;;;;;;;;9.83;100.00;97783.03;5025379;28;19979;-71
2023/11/03 02:27:59;;;;;;;;;;;;;;;9.84;100.00;97787.31;5029734;28;19929;-73
2023/11/03 02:30:26;;;;;;;;;;;;;;;9.82;100.00;97784.84;5018044;28;20083;-66
2023/11/03 02:32:54;;;;;;;;;;;;;;;9.78;100.00;97775.63;5008992;28;19925;-66
2023/11/03 02:35:21;;;;;;;;;;;;;;;9.80;100.00;97757.06;5023108;28;19979;-71
2023/11/03 02:37:48;;;;;;;;;;;;;;;9.77;100.00;97745.09;5024515;28;19971;-72
2023/11/03 02:40:15;;;;;;;;;;;;;;;9.76;100.00;97722.41;5006714;28;20272;-73
2023/11/03 02:42:42;;;;;;;;;;;;;;;9.74;100.00;97724.38;5031353;28;20063;-71
2023/11/03 02:45:10;;;;;;;;;;;;;;;9.72;100.00;97731.56;5003722;28;19979;-72
2023/11/03 02:47:37;;;;;;;;;;;;;;;9.69;100.00;97759.97;5011155;28;20059;-73
2023/11/03 02:50:04;;;;;;;;;;;;;;;9.62;100.00;97759.75;5028695;28;19924;-70
2023/11/03 02:52:32;;;;;;;;;;;;;;;9.61;100.00;97779.94;5020360;28;19929;-72
2023/11/03 02:54:59;;;;;;;;;;;;;;;9.60;100.00;97778.31;5023347;28;20448;-71
2023/11/03 02:57:26;;;;;;;;;;;;;;;9.57;100.00;97794.34;5015585;28;19925;-69
2023/11/03 02:59:54;;;;;;;;;;;;;;;9.58;100.00;97784.69;5021136;28;19953;-71
2023/11/03 03:02:21;;;;;;;;;;;;;;;9.57;100.00;97783.03;5017630;28;20017;-71
2023/11/03 03:04:48;;;;;;;;;;;;;;;9.53;100.00;97776.44;5019865;28;19960;-70
2023/11/03 03:07:15;;;;;;;;;;;;;;;9.55;100.00;97783.19;5017006;28;19925;-69
2023/11/03 03:09:42;;;;;;;;;;;;;;;9.54;100.00;97778.91;5016597;28;20079;-72
2023/11/03 03:12:09;;;;;;;;;;;;;;;9.54;100.00;97773.66;5025191;28;19960;-68
2023/11/03 03:14:37;;;;;;;;;;;;;;;9.55;100.00;97774.50;5008429;28;19971;-71
2023/11/03 03:17:04;;;;;;;;;;;;;;;9.55;100.00;97774.50;5009071;28;20419;-72
2023/11/03 03:19:31;;;;;;;;;;;;;;;9.54;100.00;97776.28;5023666;28;20003;-72
2023/11/03 03:21:58;;;;;;;;;;;;;;;9.57;100.00;97773.34;5012074;28;20008;-72
2023/11/03 03:24:26;;;;;;;;;;;;;;;9.57;100.00;97778.59;5028001;28;20023;-71
2023/11/03 03:26:53;;;;;;;;;;;;;;;9.59;100.00;97784.53;5023887;28;19925;-73
2023/11/03 03:29:20;;;;;;;;;;;;;;;9.57;100.00;97781.22;5022779;28;20352;-74
2023/11/03 03:31:47;;;;;;;;;;;;;;;9.55;100.00;97790.25;5013054;28;20015;-72
2023/11/03 03:34:14;;;;;;;;;;;;;;;9.52;100.00;97786.13;5016954;28;19956;-72
2023/11/03 03:36:42;;;;;;;;;;;;;;;9.51;100.00;97784.47;5021646;28;19991;-73
2023/11/03 03:39:09;;;;;;;;;;;;;;;9.50;100.00;97787.22;5022363;28;20388;-73
2023/11/03 03:41:36;;;;;;;;;;;;;;;9.48;100.00;97795.28;5020273;28;19936;-73
2023/11/03 03:44:03;;;;;;;;;;;;;;;9.45;100.00;97792.94;5002250;28;19944;-72
2023/11/03 03:46:36;;;;;;;;;;;;;;;9.42;100.00;97795.91;4994854;28;19987;-74
2023/11/03 03:49:03;;;;;;;;;;;;;;;9.36;100.00;97792.06;5037066;28;20163;-72
2023/11/03 03:51:30;;;;;;;;;;;;;;;9.33;100.00;97781.88;5008293;28;19933;-72
2023/11/03 03:53:57;;;;;;;;;;;;;;;9.32;100.00;97784.63;5022690;28;19971;-73
2023/11/03 03:56:25;;;;;;;;;;;;;;;9.30;100.00;97784.81;5020928;28;19935;-71
2023/11/03 03:58:53;;;;;;;;;;;;;;;9.26;100.00;97780.00;5022955;28;19925;-72
2023/11/03 04:01:21;;;;;;;;;;;;;;;9.25;100.00;97775.72;5018940;28;19926;-67
2023/11/03 04:03:49;;;;;;;;;;;;;;;9.25;100.00;97775.72;5020177;28;19968;-72
2023/11/03 04:06:16;;;;;;;;;;;;;;;9.25;100.00;97767.88;5006138;28;19983;-70
2023/11/03 04:08:43;;;;;;;;;;;;;;;9.21;100.00;97766.50;5024194;28;20004;-71
2023/11/03 04:11:12;;;;;;;;;;;;;;;9.20;100.00;97772.75;5020219;28;19983;-74
2023/11/03 04:13:40;;;;;;;;;;;;;;;9.17;100.00;97771.22;5020859;28;20020;-72
2023/11/03 04:16:08;;;;;;;;;;;;;;;9.13;100.00;97762.84;5025100;28;19925;-72
2023/11/03 04:18:37;;;;;;;;;;;;;;;9.09;100.00;97761.47;5022184;28;19933;-73
2023/11/03 04:21:05;;;;;;;;;;;;;;;9.08;100.00;97762.47;5020458;28;19929;-72
2023/11/03 04:23:32;;;;;;;;;;;;;;;9.08;100.00;97766.88;5023537;28;20066;-73
2023/11/03 04:25:59;;;;;;;;;;;;;;;9.06;100.00;97760.97;5003987;28;20018;-70
2023/11/03 04:28:26;;;;;;;;;;;;;;;9.00;100.00;97762.38;5021942;28;19971;-72
2023/11/03 04:30:53;;;;;;;;;;;;;;;8.98;100.00;97772.22;5034140;28;20030;-70
2023/11/03 04:33:20;;;;;;;;;;;;;;;8.97;100.00;97780.25;5019460;28;19968;-71
2023/11/03 04:35:47;;;;;;;;;;;;;;;8.93;100.00;97784.16;5015071;28;19996;-70
2023/11/03 04:38:14;;;;;;;;;;;;;;;8.87;100.00;97786.41;5025115;28;19925;-71
2023/11/03 04:40:41;;;;;;;;;;;;;;;8.87;100.00;97780.31;5017873;28;19925;-67
2023/11/03 04:43:08;;;;;;;;;;;;;;;8.83;100.00;97776.34;5019737;28;19979;-70
2023/11/03 04:45:36;;;;;;;;;;;;;;;8.80;100.00;97777.47;5023138;28;19925;-71
2023/11/03 04:48:03;;;;;;;;;;;;;;;8.79;100.00;97767.94;5015083;28;20070;-71
2023/11/03 04:50:30;;;;;;;;;;;;;;;8.77;100.00;97762.00;5018282;28;19983;-73
2023/11/03 04:52:57;;;;;;;;;;;;;;;8.77;100.00;97759.38;5017406;28;19925;-72
2023/11/03 04:55:24;;;;;;;;;;;;;;;8.80;100.00;97764.34;5014904;28;19925;-73
2023/11/03 04:57:52;;;;;;;;;;;;;;;8.73;100.00;97770.31;5017871;28;19933;-72
2023/11/03 05:00:19;;;;;;;;;;;;;;;8.70;100.00;97755.72;5029862;28;19971;-74
2023/11/03 05:02:47;;;;;;;;;;;;;;;8.69;100.00;97761.09;5024424;28;19956;-73
2023/11/03 05:05:14;;;;;;;;;;;;;;;8.70;100.00;97754.91;5038287;28;20371;-72
2023/11/03 05:07:41;;;;;;;;;;;;;;;8.71;100.00;97759.19;5027528;28;19929;-75
2023/11/03 05:10:08;;;;;;;;;;;;;;;8.65;100.00;97765.84;5027538;28;19925;-71
2023/11/03 05:12:35;;;;;;;;;;;;;;;8.63;100.00;97765.97;5022982;28;20319;-75
2023/11/03 05:15:03;;;;;;;;;;;;;;;8.62;100.00;97768.75;5026979;28;19939;-73
2023/11/03 05:17:31;;;;;;;;;;;;;;;8.62;100.00;97772.19;5011415;28;19932;-74
2023/11/03 05:19:58;;;;;;;;;;;;;;;8.60;100.00;97770.69;5024761;28;20051;-71
2023/11/03 05:22:25;;;;;;;;;;;;;;;8.61;100.00;97761.88;5025414;28;19947;-70
2023/11/03 05:24:52;;;;;;;;;;;;;;;8.58;100.00;97772.63;5029071;28;19937;-72
2023/11/03 05:27:19;;;;;;;;;;;;;;;8.53;100.00;97778.31;5017652;28;19968;-71
2023/11/03 05:29:47;;;;;;;;;;;;;;;8.53;100.00;97772.25;5001186;28;20365;-72
2023/11/03 05:32:14;;;;;;;;;;;;;;;8.54;100.00;97782.59;5008413;28;19925;-70
2023/11/03 05:34:41;;;;;;;;;;;;;;;8.57;100.00;97774.44;5025862;28;20051;-72
2023/11/03 05:37:10;;;;;;;;;;;;;;;8.57;100.00;97771.81;5021083;28;20388;-74
2023/11/03 05:39:37;;;;;;;;;;;;;;;8.56;100.00;97775.41;5026596;28;19929;-73
2023/11/03 05:42:04;;;;;;;;;;;;;;;8.56;100.00;97782.47;5026879;28;19925;-67
2023/11/03 05:44:33;;;;;;;;;;;;;;;8.59;100.00;97790.00;5025775;28;20285;-75
2023/11/03 05:47:03;;;;;;;;;;;;;;;8.56;100.00;97792.94;5024575;28;19939;-74
2023/11/03 05:49:30;;;;;;;;;;;;;;;8.53;100.00;97793.22;5019311;28;19933;-75
2023/11/03 05:51:57;;;;;;;;;;;;;;;8.51;100.00;97787.28;5022288;28;19972;-74
2023/11/03 05:54:25;;;;;;;;;;;;;;;8.47;100.00;97789.41;5024008;28;19951;-73
2023/11/03 05:56:52;;;;;;;;;;;;;;;8.49;100.00;97787.44;5032044;28;19925;-74
2023/11/03 05:59:19;;;;;;;;;;;;;;;8.49;100.00;97789.25;5022452;28;19987;-75
2023/11/03 06:01:47;;;;;;;;;;;;;;;8.49;100.00;97786.63;5023393;28;19975;-73
2023/11/03 06:04:14;;;;;;;;;;;;;;;8.44;100.00;97788.88;4990102;28;19972;-71
2023/11/03 06:06:42;;;;;;;;;;;;;;;8.42;100.00;97773.28;5041650;28;19951;-71
2023/11/03 06:09:11;;;;;;;;;;;;;;;8.43;100.00;97772.31;5024107;28;19980;-74
2023/11/03 06:11:39;;;;;;;;;;;;;;;8.42;100.00;97760.19;5008412;28;19933;-72
2023/11/03 06:14:06;;;;;;;;;;;;;;;8.41;100.00;97758.50;5038844;28;20035;-76
2023/11/03 06:16:37;;;;;;;;;;;;;;;8.41;100.00;97771.63;5006499;28;19980;-76
2023/11/03 06:19:04;;;;;;;;;;;;;;;8.35;100.00;97795.78;5006784;28;19925;-73
2023/11/03 06:21:32;;;;;;;;;;;;;;;8.33;100.00;97816.91;5023822;28;20217;-72
2023/11/03 06:23:59;;;;;;;;;;;;;;;8.29;100.00;97833.06;5017058;28;19967;-72
2023/11/03 06:26:26;;;;;;;;;;;;;;;8.34;100.00;97850.00;5017283;28;19964;-72
2023/11/03 06:28:56;;;;;;;;;;;;;;;8.32;100.00;97861.59;5021088;28;19933;-68
2023/11/03 06:31:23;;;;;;;;;;;;;;;8.31;100.00;97863.38;5017200;28;19937;-72
2023/11/03 06:33:50;;;;;;;;;;;;;;;8.30;100.00;97860.91;5024876;28;19990;-75
2023/11/03 06:36:18;;;;;;;;;;;;;;;8.32;100.00;97869.44;5023849;28;20036;-73
2023/11/03 06:38:45;;;;;;;;;;;;;;;8.35;100.00;97893.59;5023212;28;19925;-78
2023/11/03 06:41:12;;;;;;;;;;;;;;;8.38;100.00;97902.19;5015631;28;20442;-75
2023/11/03 06:43:41;;;;;;;;;;;;;;;8.38;100.00;97899.56;5020283;28;19925;-76
2023/11/03 06:46:09;;;;;;;;;;;;;;;8.40;100.00;97895.00;4995930;28;19925;-79
2023/11/03 06:48:37;;;;;;;;;;;;;;;8.42;100.00;97906.16;5030225;28;19932;-76
2023/11/03 06:51:10;;;;;;;;;;;;;;;8.44;100.00;97883.25;5022969;28;20046;-75
2023/11/03 06:53:37;;;;;;;;;;;;;;;8.46;100.00;97887.34;5038095;28;19929;-75
2023/11/03 06:56:05;;;;;;;;;;;;;;;8.45;100.00;97884.88;5023039;28;20887;-77
2023/11/03 06:58:35;;;;;;;;;;;;;;;8.43;100.00;97878.97;5023007;28;19926;-71
2023/11/03 07:01:04;;;;;;;;;;;;;;;8.45;100.00;97877.84;5029737;28;19986;-76
2023/11/03 07:03:32;;;;;;;;;;;;;;;8.47;100.00;97880.34;5028171;28;19925;-71
2023/11/03 07:06:04;;;;;;;;;;;;;;;8.49;100.00;97883.63;5012218;28;19932;-75
2023/11/03 07:08:31;;;;;;;;;;;;;;;8.54;100.00;97889.28;5024624;28;19929;-76
2023/11/03 07:10:58;;;;;;;;;;;;;;;8.55;100.00;97889.13;5012881;28;19925;-79
2023/11/03 07:13:25;;;;;;;;;;;;;;;8.54;100.00;97884.84;5024260;28;19933;-74
2023/11/03 07:15:52;;;;;;;;;;;;;;;8.55;100.00;97877.81;5024408;28;19959;-72
2023/11/03 07:18:19;;;;;;;;;;;;;;;8.57;100.00;97866.22;5027555;28;19952;-73
2023/11/03 07:20:47;;;;;;;;;;;;;;;8.62;100.00;97860.53;5011493;28;19925;-73
2023/11/03 07:23:15;;;;;;;;;;;;;;;8.63;100.00;97860.38;5026635;28;19979;-78
2023/11/03 07:25:43;;;;;;;;;;;;;;;8.61;100.00;97883.31;5031004;28;19925;-75
2023/11/03 07:28:11;;;;;;;;;;;;;;;8.69;100.00;97894.84;5018795;28;19952;-79
2023/11/03 07:30:38;;;;;;;;;;;;;;;8.70;100.00;97897.34;5030275;28;20374;-81
2023/11/03 07:33:07;;;;;;;;;;;;;;;8.79;100.00;97893.84;5029507;28;19933;-78
2023/11/03 07:35:34;;;;;;;;;;;;;;;8.85;100.00;97881.94;5025525;28;19928;-77
2023/11/03 07:38:03;;;;;;;;;;;;;;;8.86;100.00;97873.09;4987579;28;19926;-78
2023/11/03 07:40:30;;;;;;;;;;;;;;;8.94;100.00;97860.06;5007405;28;19960;-77
2023/11/03 07:42:58;;;;;;;;;;;;;;;8.97;100.00;97864.22;5028632;28;19929;-80
2023/11/03 07:45:25;;;;;;;;;;;;;;;9.05;100.00;97870.38;5026166;28;19925;-73
2023/11/03 07:47:52;;;;;;;;;;;;;;;9.05;100.00;97872.16;5019742;28;19952;-81
2023/11/03 07:50:19;;;;;;;;;;;;;;;9.11;100.00;97882.06;5025335;28;19997;-78
2023/11/03 07:52:46;;;;;;;;;;;;;;;9.13;100.00;97896.69;5019200;28;19964;-82
2023/11/03 07:55:16;;;;;;;;;;;;;;;9.19;100.00;97904.97;5008857;28;19972;-68
2023/11/03 07:57:43;;;;;;;;;;;;;;;9.12;100.00;97916.03;5021350;28;19960;-75
2023/11/03 08:00:12;;;;;;;;;;;;;;;9.17;100.00;97922.66;5021223;28;19999;-79
2023/11/03 08:02:39;;;;;;;;;;;;;;;9.19;100.00;97920.72;5027167;28;19929;-78
2023/11/03 08:05:09;;;;;;;;;;;;;;;9.21;100.00;97913.50;5025004;28;20007;-77
2023/11/03 08:07:37;;;;;;;;;;;;;;;9.23;100.00;97935.16;5019571;28;20107;-76
2023/11/03 08:10:04;;;;;;;;;;;;;;;9.35;100.00;97931.38;5009143;28;20075;-77
2023/11/03 08:12:33;;;;;;;;;;;;;;;9.44;100.00;97932.28;5028184;28;19925;-75
2023/11/03 08:15:01;;;;;;;;;;;;;;;9.39;100.00;97938.78;5023521;28;19972;-74
2023/11/03 08:17:43;;;;;;;;;;;;;;;9.46;100.00;97946.09;5035893;28;19929;-74
2023/11/03 08:20:13;;;;;;;;;;;;;;;9.53;100.00;97947.97;5022970;28;19980;-72
2023/11/03 08:22:40;;;;;;;;;;;;;;;9.58;100.00;97964.09;5024026;28;19956;-74
2023/11/03 08:25:07;;;;;;;;;;;;;;;9.52;100.00;97956.00;5007931;28;20108;-74
2023/11/03 08:27:35;;;;;;;;;;;;;;;9.49;100.00;97962.34;5023896;28;19925;-73
2023/11/03 08:30:04;;;;;;;;;;;;;;;9.59;100.00;97972.78;5028325;28;19937;-75
2023/11/03 08:32:31;;;;;;;;;;;;;;;9.60;100.00;97977.91;5008443;28;19929;-74
2023/11/03 08:34:58;;;;;;;;;;;;;;;9.70;100.00;97974.41;5002784;28;19948;-68
2023/11/03 08:37:28;;;;;;;;;;;;;;;9.61;100.00;97970.88;5023677;28;19938;-77
2023/11/03 08:39:55;;;;;;;;;;;;;;;9.63;100.00;97971.53;5028361;28;19995;-74
2023/11/03 08:42:23;;;;;;;;;;;;;;;9.71;100.00;97973.41;5009056;28;20462;-72
2023/11/03 08:44:50;;;;;;;;;;;;;;;9.79;100.00;97963.81;5023552;28;19961;-74
2023/11/03 08:47:18;;;;;;;;;;;;;;;10.03;100.00;97952.66;5026832;28;20565;-74
2023/11/03 08:49:45;;;;;;;;;;;;;;;10.24;100.00;97944.50;5026938;28;20006;-75
2023/11/03 08:52:13;;;;;;;;;;;;;;;10.40;99.76;97941.13;5021424;28;20380;-74
2023/11/03 08:54:40;;;;;;;;;;;;;;;10.33;98.04;97938.31;5020441;28;19929;-81
2023/11/03 08:57:09;;;;;;;;;;;;;;;10.42;98.13;97927.84;5019280;28;20293;-70
2023/11/03 08:59:36;;;;;;;;;;;;;;;10.46;96.88;97929.19;5038401;28;19925;-72
2023/11/03 09:02:06;;;;;;;;;;;;;;;10.47;95.90;97939.53;5009197;28;19967;-75
2023/11/03 09:04:33;;;;;;;;;;;;;;;10.52;94.41;97941.69;5026379;28;19968;-73
2023/11/03 09:07:00;;;;;;;;;;;;;;;10.40;94.26;97951.66;5010203;28;19971;-70
2023/11/03 09:09:28;;;;;;;;;;;;;;;10.58;95.51;97952.44;5025654;28;19964;-72
2023/11/03 09:11:55;;;;;;;;;;;;;;;10.55;94.06;97958.00;5025782;28;19956;-76
2023/11/03 09:14:25;;;;;;;;;;;;;;;10.60;93.09;97952.28;5026346;28;20441;-77
2023/11/03 09:16:53;;;;;;;;;;;;;;;10.70;93.96;97960.88;5017116;28;20022;-73
2023/11/03 09:19:20;;;;;;;;;;;;;;;10.76;92.67;97960.28;5003264;28;20028;-74
2023/11/03 09:21:48;;;;;;;;;;;;;;;10.55;90.65;97958.00;5021254;28;20062;-74
2023/11/03 09:24:16;;;;;;;;;;;;;;;10.44;92.63;97955.63;5023206;28;19965;-69
2023/11/03 09:26:43;;;;;;;;;;;;;;;10.22;92.49;97959.56;5026782;28;20055;-74
2023/11/03 09:29:11;;;;;;;;;;;;;;;10.36;92.60;97958.22;5026436;28;19929;-73
2023/11/03 09:31:38;;;;;;;;;;;;;;;10.57;92.66;97984.97;5027532;28;19929;-74
2023/11/03 09:34:05;;;;;;;;;;;;;;;10.46;89.77;97979.97;5024398;28;19929;-70
2023/11/03 09:36:33;;;;;;;;;;;;;;;10.31;91.84;97976.25;5029720;28;20019;-73
2023/11/03 09:39:00;;;;;;;;;;;;;;;10.57;92.21;97966.56;5019620;28;19925;-66
2023/11/03 09:41:27;;;;;;;;;;;;;;;10.72;91.54;97960.75;5027380;28;19925;-71
2023/11/03 09:43:54;;;;;;;;;;;;;;;10.83;91.14;97957.81;4993019;28;19933;-67
2023/11/03 09:47:10;;;;;;;;;;;;;;;10.71;91.50;97965.16;5023311;28;20059;-69
2023/11/03 09:49:37;;;;;;;;;;;;;;;10.53;90.88;97953.88;5024307;28;19931;-69
2023/11/03 09:52:05;;;;;;;;;;;;;;;10.71;91.98;97962.53;5020427;28;19999;-74
2023/11/03 09:54:34;;;;;;;;;;;;;;;10.81;90.00;97973.78;5024479;28;20030;-74
2023/11/03 09:57:02;;;;;;;;;;;;;;;10.83;88.37;97965.72;5025714;28;19960;-69
2023/11/03 09:59:35;;;;;;;;;;;;;;;10.89;89.14;97958.00;5025486;28;19925;-68
2023/11/03 10:02:09;;;;;;;;;;;;;;;11.06;88.47;97955.44;5011445;28;19960;-67
2023/11/03 10:04:39;;;;;;;;;;;;;;;11.00;88.81;97942.94;5013627;28;20387;-74
2023/11/03 10:07:10;;;;;;;;;;;;;;;11.06;86.93;97935.22;5019957;28;19965;-77
2023/11/03 10:09:39;;;;;;;;;;;;;;;10.89;85.14;97929.06;5013458;28;20027;-66
2023/11/03 10:12:09;;;;;;;;;;;;;;;10.90;86.92;97930.72;5012861;28;19925;-72
2023/11/03 10:14:39;;;;;;;;;;;;;;;10.56;87.60;97932.53;5014667;28;19925;-72
2023/11/03 10:17:08;;;;;;;;;;;;;;;10.81;87.73;97931.69;5021224;28;20403;-73
2023/11/03 10:19:35;;;;;;;;;;;;;;;10.94;87.16;97923.31;5012665;28;19980;-72
2023/11/03 10:22:08;;;;;;;;;;;;;;;11.08;87.54;97925.38;5012456;28;20021;-73
2023/11/03 10:24:36;;;;;;;;;;;;;;;11.16;86.63;97920.09;5018219;28;19951;-73
2023/11/03 10:27:03;;;;;;;;;;;;;;;11.12;83.22;97923.22;5026750;28;19968;-75
2023/11/03 10:29:30;;;;;;;;;;;;;;;10.81;84.80;97926.41;5005322;28;19957;-73
2023/11/03 10:31:57;;;;;;;;;;;;;;;10.68;86.17;97918.13;5024179;28;19925;-72
2023/11/03 10:34:24;;;;;;;;;;;;;;;10.83;85.97;97936.78;5018264;28;20476;-66
2023/11/03 10:36:55;;;;;;;;;;;;;;;10.96;85.72;97952.13;5001985;28;19925;-71
2023/11/03 10:39:25;;;;;;;;;;;;;;;10.93;84.03;97963.78;5021719;28;19967;-74
2023/11/03 10:41:52;;;;;;;;;;;;;;;10.83;84.24;97952.56;5025180;28;20287;-68
2023/11/03 10:44:20;;;;;;;;;;;;;;;10.73;83.55;97963.22;5029296;28;19964;-73
2023/11/03 10:47:06;;;;;;;;;;;;;;;10.63;83.28;97970.41;5023839;28;19968;-69
2023/11/03 10:49:37;;;;;;;;;;;;;;;10.53;84.51;97965.22;5009599;28;19925;-74
2023/11/03 10:52:07;;;;;;;;;;;;;;;10.47;84.45;97959.75;5009203;28;19952;-73
2023/11/03 10:54:37;;;;;;;;;;;;;;;10.47;83.88;97965.84;5008580;28;19988;-74
2023/11/03 10:57:05;;;;;;;;;;;;;;;10.43;84.44;97967.13;5025404;28;19933;-70
2023/11/03 11:00:08;;;;;;;;;;;;;;;10.54;84.66;97966.88;5026339;28;19964;-70
2023/11/03 11:02:51;;;;;;;;;;;;;;;10.68;84.18;97980.44;5020200;28;19925;-79
2023/11/03 11:05:30;;;;;;;;;;;;;;;10.49;84.33;97977.06;5020126;28;19937;-68
2023/11/03 11:07:59;;;;;;;;;;;;;;;10.33;83.57;97969.84;5008696;28;19929;-69
2023/11/03 11:10:36;;;;;;;;;;;;;;;10.49;84.60;97970.94;5026351;28;20331;-70
2023/11/03 11:13:09;;;;;;;;;;;;;;;10.51;83.93;97976.88;5023245;28;19980;-74
2023/11/03 11:15:37;;;;;;;;;;;;;;;10.57;83.45;97973.63;5014183;28;19925;-68
2023/11/03 11:18:17;;;;;;;;;;;;;;;10.63;82.11;97967.75;5021111;28;19925;-67
2023/11/03 11:20:49;;;;;;;;;;;;;;;10.51;83.08;97967.19;5024941;28;19929;-73
2023/11/03 11:23:17;;;;;;;;;;;;;;;10.63;83.34;97965.13;5003591;28;19976;-66
2023/11/03 11:25:46;;;;;;;;;;;;;;;10.56;82.17;97954.38;5023774;28;20434;-67
2023/11/03 11:28:30;;;;;;;;;;;;;;;10.49;82.82;97947.25;5015801;28;19925;-75
2023/11/03 11:30:57;;;;;;;;;;;;;;;10.54;83.06;97951.09;5004480;28;20307;-69
2023/11/03 11:33:28;;;;;;;;;;;;;;;10.66;82.27;97954.28;5018120;28;19929;-67
2023/11/03 11:35:55;;;;;;;;;;;;;;;10.69;82.34;97961.03;5029017;28;19979;-74
2023/11/03 11:38:26;;;;;;;;;;;;;;;10.64;81.64;97954.44;5025661;28;20176;-71
2023/11/03 11:40:54;;;;;;;;;;;;;;;10.63;81.60;97944.91;5029206;28;19972;-74
2023/11/03 11:43:22;;;;;;;;;;;;;;;10.61;83.16;97952.09;5022463;28;20229;-66
2023/11/03 11:46:07;;;;;;;;;;;;;;;10.58;84.32;97951.59;5023017;28;19951;-74
2023/11/03 11:48:34;;;;;;;;;;;;;;;10.86;83.15;97949.63;5038934;28;19929;-67
2023/11/03 11:51:03;;;;;;;;;;;;;;;10.86;82.84;97947.81;5006945;28;19936;-75
2023/11/03 11:53:31;;;;;;;;;;;;;;;10.86;82.89;97944.34;5018013;28;19995;-73
2023/11/03 11:55:58;;;;;;;;;;;;;;;11.02;83.20;97954.94;5000798;28;19933;-72
2023/11/03 11:58:25;;;;;;;;;;;;;;;10.93;83.87;97948.00;5023822;28;19928;-74
2023/11/03 12:00:52;;;;;;;;;;;;;;;11.10;84.11;97936.53;5021596;28;20024;-71
2023/11/03 12:03:22;;;;;;;;;;;;;;;11.24;83.79;97937.75;5026334;28;19929;-72
2023/11/03 12:05:50;;;;;;;;;;;;;;;11.42;83.19;97963.97;5020021;28;19925;-76
2023/11/03 12:08:17;;;;;;;;;;;;;;;11.52;82.45;97959.38;5023137;28;19940;-74
2023/11/03 12:10:48;;;;;;;;;;;;;;;11.37;80.17;97974.16;5017713;28;21253;-76
2023/11/03 12:13:16;;;;;;;;;;;;;;;11.19;80.45;97968.19;5015521;28;21044;-77
2023/11/03 12:15:43;;;;;;;;;;;;;;;11.27;81.57;97966.41;5023784;28;19933;-74
2023/11/03 12:18:12;;;;;;;;;;;;;;;11.13;81.83;97956.47;5010838;28;20461;-72
2023/11/03 12:20:39;;;;;;;;;;;;;;;11.22;82.27;97952.06;5019638;28;20425;-74
2023/11/03 12:23:06;;;;;;;;;;;;;;;11.40;81.95;97958.03;5000196;28;20828;-74
2023/11/03 12:25:33;;;;;;;;;;;;;;;11.39;80.67;97957.22;5022337;28;20006;-76
2023/11/03 12:28:01;;;;;;;;;;;;;;;11.58;80.31;97961.38;4985324;28;20024;-73
2023/11/03 12:30:28;;;;;;;;;;;;;;;11.83;79.37;97951.72;5031803;28;20015;-74
2023/11/03 12:33:20;;;;;;;;;;;;;;;11.95;78.49;97957.50;5012281;28;20291;-67
2023/11/03 12:36:42;;;;;;;;;;;;;;;11.75;78.20;97949.06;5020922;28;19936;-76
2023/11/03 12:39:48;;;;;;;;;;;;;;;12.03;78.94;97954.88;5030961;28;20490;-73
2023/11/03 12:43:13;;;;;;;;;;;;;;;12.11;76.93;97968.06;5021781;28;20025;-76
2023/11/03 12:46:29;;;;;;;;;;;;;;;12.10;76.65;97963.75;5016766;28;19936;-76
2023/11/03 12:49:44;;;;;;;;;;;;;;;12.58;75.83;97966.53;5019933;28;20382;-76
2023/11/03 12:53:03;;;;;;;;;;;;;;;13.18;73.88;97971.28;5026267;28;19927;-72
2023/11/03 12:56:19;;;;;;;;;;;;;;;13.82;71.79;97961.34;5021784;28;19937;-67
2023/11/03 12:59:34;;;;;;;;;;;;;;;14.26;65.55;97960.69;5021793;28;19924;-75